GEC8283 EDDF-EBBR
Flight info
| Callsign | GEC8283 |
|---|---|
| Flight time | 0h 39m |
| Altitude | 22000 |
| Route | SOBRA1F SOBRA Y180 BITBU Y181 GOPAS N852 LNO |
| Aircraft | MD11/H-SDE1E2E3FGHIJ2J3J4J5M1RWXY/LB1D1 |
Departure
| Time | 2026-04-15 14:31 |
|---|---|
| Airport | Frankfurt Main Airport (EDDF) |
Arrival
| Time | 2026-04-15 15:11 |
|---|---|
| Airport | Brussels Airport (EBBR) |
| Time | Latitude | Longitude | Altitude | Speed | Heading |
|---|---|---|---|---|---|
| 2026-04-15 14:01 | 50.04026 | 8.54340 | 356 ft | 0 kts | 69° |
| 2026-04-15 14:22 | 50.04022 | 8.54321 | 359 ft | 3 kts | 69° |
| 2026-04-15 14:23 | 50.04015 | 8.54292 | 364 ft | 3 kts | 69° |
| 2026-04-15 14:23 | 50.04008 | 8.54263 | 363 ft | 3 kts | 69° |
| 2026-04-15 14:23 | 50.04001 | 8.54235 | 352 ft | 3 kts | 82° |
| 2026-04-15 14:23 | 50.04000 | 8.54210 | 352 ft | 2 kts | 112° |
| 2026-04-15 14:24 | 50.04002 | 8.54203 | 352 ft | 1 kts | 116° |
| 2026-04-15 14:24 | 50.03993 | 8.54219 | 352 ft | 3 kts | 134° |
| 2026-04-15 14:24 | 50.03977 | 8.54234 | 360 ft | 3 kts | 152° |
| 2026-04-15 14:24 | 50.03958 | 8.54246 | 352 ft | 3 kts | 159° |
| 2026-04-15 14:25 | 50.03939 | 8.54256 | 353 ft | 3 kts | 161° |
| 2026-04-15 14:25 | 50.03922 | 8.54266 | 362 ft | 2 kts | 160° |
| 2026-04-15 14:25 | 50.03920 | 8.54267 | 354 ft | 0 kts | 159° |
| 2026-04-15 14:27 | 50.03912 | 8.54272 | 354 ft | 4 kts | 159° |
| 2026-04-15 14:28 | 50.03861 | 8.54300 | 359 ft | 9 kts | 164° |
| 2026-04-15 14:28 | 50.03833 | 8.54285 | 361 ft | 6 kts | 220° |
| 2026-04-15 14:28 | 50.03799 | 8.54209 | 361 ft | 11 kts | 242° |
| 2026-04-15 14:28 | 50.03763 | 8.54070 | 362 ft | 16 kts | 250° |
| 2026-04-15 14:29 | 50.03721 | 8.53894 | 359 ft | 17 kts | 249° |
| 2026-04-15 14:29 | 50.03681 | 8.53727 | 358 ft | 16 kts | 249° |
| 2026-04-15 14:29 | 50.03635 | 8.53544 | 357 ft | 20 kts | 249° |
| 2026-04-15 14:29 | 50.03585 | 8.53331 | 355 ft | 21 kts | 249° |
| 2026-04-15 14:30 | 50.03536 | 8.53129 | 348 ft | 19 kts | 249° |
| 2026-04-15 14:30 | 50.03489 | 8.52939 | 351 ft | 18 kts | 249° |
| 2026-04-15 14:30 | 50.03442 | 8.52766 | 353 ft | 17 kts | 247° |
| 2026-04-15 14:30 | 50.03395 | 8.52620 | 354 ft | 12 kts | 223° |
| 2026-04-15 14:31 | 50.03320 | 8.52596 | 351 ft | 17 kts | 181° |
| 2026-04-15 14:31 | 50.02915 | 8.52597 | 345 ft | 103 kts | 180° |
| 2026-04-15 14:31 | 50.01933 | 8.52608 | 352 ft | 174 kts | 180° |
| 2026-04-15 14:31 | 50.00683 | 8.52636 | 1047 ft | 182 kts | 178° |
| 2026-04-15 14:32 | 49.99441 | 8.52695 | 2150 ft | 177 kts | 178° |
| 2026-04-15 14:32 | 49.98208 | 8.52754 | 3152 ft | 179 kts | 178° |
| 2026-04-15 14:32 | 49.96942 | 8.52838 | 3927 ft | 191 kts | 177° |
| 2026-04-15 14:32 | 49.95491 | 8.52941 | 4148 ft | 222 kts | 176° |
| 2026-04-15 14:33 | 49.93923 | 8.53052 | 4838 ft | 228 kts | 177° |
| 2026-04-15 14:33 | 49.92328 | 8.53165 | 5701 ft | 230 kts | 177° |
| 2026-04-15 14:33 | 49.90730 | 8.53275 | 6785 ft | 231 kts | 178° |
| 2026-04-15 14:33 | 49.89106 | 8.53386 | 7772 ft | 235 kts | 179° |
| 2026-04-15 14:34 | 49.87462 | 8.53298 | 8638 ft | 238 kts | 192° |
| 2026-04-15 14:34 | 49.85777 | 8.52586 | 8989 ft | 267 kts | 199° |
| 2026-04-15 14:34 | 49.83984 | 8.51608 | 9729 ft | 277 kts | 201° |
| 2026-04-15 14:34 | 49.82172 | 8.50587 | 10431 ft | 291 kts | 201° |
| 2026-04-15 14:35 | 49.80162 | 8.49437 | 10575 ft | 323 kts | 201° |
| 2026-04-15 14:35 | 49.78037 | 8.47927 | 10761 ft | 348 kts | 215° |
| 2026-04-15 14:35 | 49.76365 | 8.45230 | 11621 ft | 352 kts | 240° |
| 2026-04-15 14:35 | 49.75567 | 8.41654 | 12484 ft | 357 kts | 262° |
| 2026-04-15 14:36 | 49.75658 | 8.37800 | 13367 ft | 363 kts | 281° |
| 2026-04-15 14:36 | 49.76353 | 8.34016 | 14137 ft | 368 kts | 288° |
| 2026-04-15 14:36 | 49.77205 | 8.30261 | 14870 ft | 372 kts | 288° |
| 2026-04-15 14:36 | 49.78038 | 8.26456 | 15599 ft | 375 kts | 287° |
| 2026-04-15 14:37 | 49.78809 | 8.22572 | 16301 ft | 379 kts | 285° |
| 2026-04-15 14:37 | 49.79528 | 8.18623 | 17015 ft | 383 kts | 284° |
| 2026-04-15 14:37 | 49.80214 | 8.14618 | 17712 ft | 387 kts | 283° |
| 2026-04-15 14:37 | 49.80883 | 8.10568 | 18414 ft | 390 kts | 283° |
| 2026-04-15 14:38 | 49.81542 | 8.06487 | 18995 ft | 393 kts | 283° |
| 2026-04-15 14:38 | 49.82202 | 8.02351 | 19570 ft | 397 kts | 283° |
| 2026-04-15 14:38 | 49.82858 | 7.98187 | 20144 ft | 399 kts | 283° |
| 2026-04-15 14:38 | 49.83518 | 7.93986 | 20700 ft | 403 kts | 283° |
| 2026-04-15 14:39 | 49.84182 | 7.89746 | 21093 ft | 406 kts | 283° |
| 2026-04-15 14:39 | 49.84850 | 7.85486 | 21486 ft | 407 kts | 283° |
| 2026-04-15 14:39 | 49.85518 | 7.81214 | 21855 ft | 409 kts | 283° |
| 2026-04-15 14:39 | 49.86192 | 7.76913 | 22130 ft | 412 kts | 283° |
| 2026-04-15 14:40 | 49.86868 | 7.72601 | 22178 ft | 409 kts | 283° |
| 2026-04-15 14:40 | 49.87534 | 7.68316 | 22191 ft | 407 kts | 283° |
| 2026-04-15 14:40 | 49.88193 | 7.64059 | 22194 ft | 406 kts | 283° |
| 2026-04-15 14:40 | 49.88841 | 7.59852 | 22190 ft | 406 kts | 283° |
| 2026-04-15 14:41 | 49.89495 | 7.55597 | 22191 ft | 406 kts | 283° |
| 2026-04-15 14:41 | 49.90150 | 7.51331 | 22192 ft | 406 kts | 283° |
| 2026-04-15 14:41 | 49.90803 | 7.47075 | 22192 ft | 406 kts | 283° |
| 2026-04-15 14:41 | 49.91457 | 7.42810 | 22188 ft | 406 kts | 283° |
| 2026-04-15 14:42 | 49.92107 | 7.38552 | 22190 ft | 406 kts | 282° |
| 2026-04-15 14:42 | 49.92758 | 7.34283 | 22184 ft | 406 kts | 283° |
| 2026-04-15 14:42 | 49.93398 | 7.30071 | 22184 ft | 406 kts | 282° |
| 2026-04-15 14:42 | 49.94045 | 7.25804 | 22183 ft | 406 kts | 282° |
| 2026-04-15 14:43 | 49.94690 | 7.21538 | 22184 ft | 406 kts | 282° |
| 2026-04-15 14:43 | 49.95328 | 7.17278 | 22183 ft | 405 kts | 282° |
| 2026-04-15 14:43 | 49.95969 | 7.13006 | 22185 ft | 406 kts | 282° |
| 2026-04-15 14:43 | 49.96609 | 7.08742 | 22180 ft | 405 kts | 282° |
| 2026-04-15 14:44 | 49.97247 | 7.04483 | 22181 ft | 405 kts | 282° |
| 2026-04-15 14:44 | 49.97884 | 7.00217 | 22181 ft | 405 kts | 282° |
| 2026-04-15 14:44 | 49.98520 | 6.95947 | 22174 ft | 405 kts | 282° |
| 2026-04-15 14:44 | 49.99112 | 6.91674 | 22174 ft | 404 kts | 278° |
| 2026-04-15 14:45 | 49.99325 | 6.87327 | 22174 ft | 403 kts | 270° |
| 2026-04-15 14:45 | 49.99268 | 6.82969 | 22169 ft | 403 kts | 267° |
| 2026-04-15 14:45 | 49.99116 | 6.78670 | 22173 ft | 405 kts | 266° |
| 2026-04-15 14:45 | 49.98943 | 6.74303 | 22174 ft | 405 kts | 266° |
| 2026-04-15 14:46 | 49.98774 | 6.69940 | 22174 ft | 405 kts | 266° |
| 2026-04-15 14:46 | 49.98618 | 6.65574 | 22174 ft | 405 kts | 266° |
| 2026-04-15 14:46 | 49.98470 | 6.61203 | 22174 ft | 405 kts | 266° |
| 2026-04-15 14:46 | 49.98327 | 6.56830 | 22174 ft | 405 kts | 266° |
| 2026-04-15 14:47 | 49.98184 | 6.52459 | 22164 ft | 405 kts | 266° |
| 2026-04-15 14:47 | 49.98042 | 6.48080 | 22165 ft | 405 kts | 266° |
| 2026-04-15 14:47 | 49.97901 | 6.43720 | 22165 ft | 405 kts | 266° |
| 2026-04-15 14:47 | 49.97761 | 6.39343 | 22165 ft | 404 kts | 266° |
| 2026-04-15 14:48 | 49.97621 | 6.34985 | 22172 ft | 404 kts | 266° |
| 2026-04-15 14:48 | 49.97481 | 6.30614 | 22173 ft | 405 kts | 266° |
| 2026-04-15 14:48 | 49.97337 | 6.26251 | 22173 ft | 405 kts | 266° |
| 2026-04-15 14:48 | 49.97192 | 6.21874 | 22173 ft | 405 kts | 266° |
| 2026-04-15 14:49 | 49.97119 | 6.17560 | 22172 ft | 405 kts | 273° |
| 2026-04-15 14:49 | 49.97668 | 6.13283 | 22172 ft | 406 kts | 289° |
| 2026-04-15 14:49 | 49.98968 | 6.09392 | 22176 ft | 409 kts | 304° |
| 2026-04-15 14:49 | 50.00932 | 6.06173 | 22179 ft | 413 kts | 320° |
| 2026-04-15 14:50 | 50.03340 | 6.03717 | 22177 ft | 415 kts | 327° |
| 2026-04-15 14:50 | 50.05827 | 6.01445 | 22181 ft | 414 kts | 328° |
| 2026-04-15 14:50 | 50.08423 | 5.99449 | 22178 ft | 418 kts | 333° |
| 2026-04-15 14:50 | 50.11068 | 5.97595 | 22173 ft | 417 kts | 333° |
| 2026-04-15 14:51 | 50.13727 | 5.95755 | 22172 ft | 418 kts | 334° |
| 2026-04-15 14:51 | 50.16402 | 5.93960 | 22172 ft | 420 kts | 336° |
| 2026-04-15 14:51 | 50.19187 | 5.92503 | 22165 ft | 423 kts | 340° |
| 2026-04-15 14:51 | 50.22005 | 5.91195 | 22165 ft | 423 kts | 341° |
| 2026-04-15 14:52 | 50.24815 | 5.89866 | 22163 ft | 421 kts | 340° |
| 2026-04-15 14:52 | 50.27611 | 5.88465 | 22177 ft | 422 kts | 339° |
| 2026-04-15 14:52 | 50.30392 | 5.86981 | 22168 ft | 422 kts | 338° |
| 2026-04-15 14:52 | 50.33161 | 5.85453 | 22167 ft | 422 kts | 338° |
| 2026-04-15 14:53 | 50.35929 | 5.83894 | 22172 ft | 420 kts | 337° |
| 2026-04-15 14:53 | 50.38676 | 5.82327 | 22161 ft | 421 kts | 337° |
| 2026-04-15 14:53 | 50.41429 | 5.80735 | 22161 ft | 421 kts | 337° |
| 2026-04-15 14:53 | 50.44180 | 5.79172 | 22163 ft | 422 kts | 338° |
| 2026-04-15 14:54 | 50.46969 | 5.77599 | 21784 ft | 431 kts | 337° |
| 2026-04-15 14:54 | 50.49769 | 5.76011 | 21066 ft | 424 kts | 337° |
| 2026-04-15 14:54 | 50.52536 | 5.74413 | 20444 ft | 420 kts | 337° |
| 2026-04-15 14:54 | 50.55261 | 5.72850 | 19841 ft | 415 kts | 337° |
| 2026-04-15 14:55 | 50.57869 | 5.71116 | 19248 ft | 409 kts | 328° |
| 2026-04-15 14:55 | 50.60126 | 5.68493 | 18652 ft | 400 kts | 313° |
| 2026-04-15 14:55 | 50.61982 | 5.65248 | 18012 ft | 397 kts | 307° |
| 2026-04-15 14:55 | 50.63658 | 5.61837 | 17381 ft | 392 kts | 305° |
| 2026-04-15 14:56 | 50.65288 | 5.58404 | 16815 ft | 389 kts | 304° |
| 2026-04-15 14:56 | 50.66911 | 5.55018 | 16243 ft | 386 kts | 305° |
| 2026-04-15 14:56 | 50.68548 | 5.51666 | 15661 ft | 383 kts | 305° |
| 2026-04-15 14:56 | 50.70181 | 5.48373 | 15107 ft | 379 kts | 306° |
| 2026-04-15 14:57 | 50.71811 | 5.45118 | 14562 ft | 376 kts | 306° |
| 2026-04-15 14:57 | 50.73433 | 5.41889 | 14028 ft | 373 kts | 306° |
| 2026-04-15 14:57 | 50.75041 | 5.38694 | 13448 ft | 370 kts | 306° |
| 2026-04-15 14:57 | 50.76637 | 5.35524 | 12889 ft | 367 kts | 306° |
| 2026-04-15 14:58 | 50.78219 | 5.32380 | 12365 ft | 364 kts | 306° |
| 2026-04-15 14:58 | 50.79790 | 5.29253 | 11853 ft | 361 kts | 306° |
| 2026-04-15 14:58 | 50.81346 | 5.26152 | 11502 ft | 359 kts | 306° |
| 2026-04-15 14:58 | 50.82884 | 5.23082 | 11328 ft | 349 kts | 306° |
| 2026-04-15 14:59 | 50.84357 | 5.20147 | 11225 ft | 331 kts | 306° |
| 2026-04-15 14:59 | 50.85752 | 5.17367 | 11103 ft | 315 kts | 306° |
| 2026-04-15 14:59 | 50.87079 | 5.14716 | 11008 ft | 301 kts | 305° |
| 2026-04-15 14:59 | 50.88339 | 5.12211 | 10880 ft | 287 kts | 306° |
| 2026-04-15 15:00 | 50.89579 | 5.09760 | 10659 ft | 284 kts | 306° |
| 2026-04-15 15:00 | 50.90813 | 5.07329 | 10244 ft | 283 kts | 306° |
| 2026-04-15 15:00 | 50.92052 | 5.04887 | 9704 ft | 286 kts | 306° |
| 2026-04-15 15:00 | 50.93304 | 5.02426 | 9185 ft | 287 kts | 306° |
| 2026-04-15 15:01 | 50.94549 | 4.99982 | 8670 ft | 282 kts | 305° |
| 2026-04-15 15:01 | 50.95776 | 4.97574 | 8199 ft | 278 kts | 306° |
| 2026-04-15 15:01 | 50.96988 | 4.95200 | 7765 ft | 273 kts | 306° |
| 2026-04-15 15:01 | 50.98171 | 4.92882 | 7352 ft | 268 kts | 306° |
| 2026-04-15 15:02 | 50.99341 | 4.90582 | 6943 ft | 266 kts | 306° |
| 2026-04-15 15:02 | 51.00485 | 4.88334 | 6540 ft | 253 kts | 306° |
| 2026-04-15 15:02 | 51.01554 | 4.86238 | 6138 ft | 238 kts | 306° |
| 2026-04-15 15:02 | 51.02588 | 4.84204 | 5765 ft | 236 kts | 304° |
| 2026-04-15 15:03 | 51.03605 | 4.82194 | 5438 ft | 236 kts | 305° |
| 2026-04-15 15:03 | 51.04646 | 4.80130 | 5103 ft | 236 kts | 305° |
| 2026-04-15 15:03 | 51.05661 | 4.78121 | 4777 ft | 237 kts | 305° |
| 2026-04-15 15:03 | 51.06686 | 4.76082 | 4492 ft | 236 kts | 304° |
| 2026-04-15 15:04 | 51.07712 | 4.74036 | 4104 ft | 235 kts | 305° |
| 2026-04-15 15:04 | 51.08731 | 4.72008 | 3899 ft | 234 kts | 304° |
| 2026-04-15 15:04 | 51.09744 | 4.69975 | 3774 ft | 234 kts | 301° |
| 2026-04-15 15:04 | 51.10455 | 4.67686 | 3492 ft | 229 kts | 284° |
| 2026-04-15 15:05 | 51.10907 | 4.65279 | 3129 ft | 222 kts | 281° |
| 2026-04-15 15:05 | 51.11248 | 4.63043 | 2968 ft | 192 kts | 272° |
| 2026-04-15 15:05 | 51.11197 | 4.61055 | 2950 ft | 174 kts | 250° |
| 2026-04-15 15:05 | 51.10672 | 4.59366 | 2963 ft | 170 kts | 227° |
| 2026-04-15 15:06 | 51.08646 | 4.57601 | 3014 ft | 169 kts | 199° |
| 2026-04-15 15:06 | 51.07536 | 4.57008 | 2977 ft | 167 kts | 198° |
| 2026-04-15 15:06 | 51.06428 | 4.56443 | 2983 ft | 167 kts | 197° |
| 2026-04-15 15:07 | 51.05316 | 4.55958 | 2975 ft | 169 kts | 195° |
| 2026-04-15 15:07 | 51.04172 | 4.55489 | 2798 ft | 168 kts | 196° |
| 2026-04-15 15:07 | 51.03049 | 4.55026 | 2555 ft | 167 kts | 196° |
| 2026-04-15 15:07 | 51.01947 | 4.54578 | 2359 ft | 153 kts | 196° |
| 2026-04-15 15:08 | 51.00931 | 4.54146 | 2113 ft | 151 kts | 195° |
| 2026-04-15 15:08 | 50.99925 | 4.53716 | 1902 ft | 148 kts | 195° |
| 2026-04-15 15:08 | 50.98928 | 4.53314 | 1695 ft | 149 kts | 196° |
| 2026-04-15 15:08 | 50.97932 | 4.52952 | 1487 ft | 146 kts | 196° |
| 2026-04-15 15:09 | 50.96952 | 4.52555 | 1300 ft | 144 kts | 197° |
| 2026-04-15 15:09 | 50.95983 | 4.52136 | 1156 ft | 145 kts | 197° |
| 2026-04-15 15:09 | 50.94991 | 4.51713 | 951 ft | 149 kts | 196° |
| 2026-04-15 15:09 | 50.93983 | 4.51305 | 752 ft | 150 kts | 195° |
| 2026-04-15 15:10 | 50.92988 | 4.50878 | 549 ft | 148 kts | 193° |
| 2026-04-15 15:10 | 50.91986 | 4.50473 | 333 ft | 147 kts | 191° |
| 2026-04-15 15:10 | 50.91011 | 4.50084 | 150 ft | 144 kts | 193° |
| 2026-04-15 15:10 | 50.90156 | 4.49738 | 138 ft | 106 kts | 194° |
| 2026-04-15 15:11 | 50.89620 | 4.49519 | 163 ft | 47 kts | 194° |
| 2026-04-15 15:11 | 50.89424 | 4.49409 | 175 ft | 17 kts | 227° |
| 2026-04-15 15:11 | 50.89376 | 4.49248 | 175 ft | 13 kts | 249° |
| 2026-04-15 15:11 | 50.89366 | 4.49204 | 174 ft | 0 kts | 249° |
| 2026-04-15 15:12 | 50.89364 | 4.49193 | 174 ft | 4 kts | 254° |
| 2026-04-15 15:12 | 50.89362 | 4.49127 | 173 ft | 4 kts | 288° |
| 2026-04-15 15:12 | 50.89375 | 4.49110 | 173 ft | 3 kts | 335° |
| 2026-04-15 15:13 | 50.89416 | 4.49126 | 171 ft | 13 kts | 15° |
| 2026-04-15 15:13 | 50.89516 | 4.49167 | 167 ft | 16 kts | 14° |
| 2026-04-15 15:13 | 50.89593 | 4.49177 | 163 ft | 8 kts | 336° |
| 2026-04-15 15:13 | 50.89661 | 4.49155 | 159 ft | 13 kts | 5° |
| 2026-04-15 15:14 | 50.89732 | 4.49179 | 154 ft | 17 kts | 15° |
| 2026-04-15 15:14 | 50.89851 | 4.49228 | 148 ft | 19 kts | 14° |
| 2026-04-15 15:14 | 50.89989 | 4.49284 | 140 ft | 21 kts | 14° |
| 2026-04-15 15:14 | 50.90126 | 4.49341 | 138 ft | 19 kts | 15° |
| 2026-04-15 15:15 | 50.90257 | 4.49395 | 134 ft | 19 kts | 14° |
| 2026-04-15 15:15 | 50.90320 | 4.49390 | 125 ft | 6 kts | 324° |
| 2026-04-15 15:15 | 50.90369 | 4.49337 | 127 ft | 13 kts | 333° |
| 2026-04-15 15:15 | 50.90476 | 4.49260 | 126 ft | 18 kts | 338° |
| 2026-04-15 15:16 | 50.90573 | 4.49187 | 125 ft | 14 kts | 335° |
| 2026-04-15 15:16 | 50.90638 | 4.49131 | 127 ft | 4 kts | 313° |
| 2026-04-15 15:16 | 50.90640 | 4.49070 | 123 ft | 9 kts | 255° |
| 2026-04-15 15:16 | 50.90602 | 4.48929 | 124 ft | 18 kts | 246° |
| 2026-04-15 15:17 | 50.90551 | 4.48751 | 124 ft | 17 kts | 245° |
| 2026-04-15 15:17 | 50.90505 | 4.48590 | 123 ft | 15 kts | 245° |
| 2026-04-15 15:17 | 50.90462 | 4.48444 | 125 ft | 15 kts | 245° |
| 2026-04-15 15:17 | 50.90415 | 4.48280 | 126 ft | 17 kts | 245° |
| 2026-04-15 15:18 | 50.90365 | 4.48106 | 124 ft | 17 kts | 246° |
| 2026-04-15 15:18 | 50.90313 | 4.47924 | 128 ft | 19 kts | 245° |
| 2026-04-15 15:18 | 50.90261 | 4.47746 | 124 ft | 17 kts | 245° |
| 2026-04-15 15:18 | 50.90214 | 4.47582 | 128 ft | 15 kts | 245° |
| 2026-04-15 15:19 | 50.90172 | 4.47439 | 125 ft | 14 kts | 245° |
| 2026-04-15 15:19 | 50.90132 | 4.47287 | 129 ft | 11 kts | 258° |
| 2026-04-15 15:19 | 50.90155 | 4.47165 | 131 ft | 14 kts | 295° |
| 2026-04-15 15:19 | 50.90207 | 4.46998 | 131 ft | 20 kts | 296° |
| 2026-04-15 15:20 | 50.90270 | 4.46800 | 136 ft | 19 kts | 297° |
| 2026-04-15 15:20 | 50.90326 | 4.46621 | 137 ft | 17 kts | 296° |
| 2026-04-15 15:20 | 50.90360 | 4.46435 | 139 ft | 18 kts | 268° |
| 2026-04-15 15:20 | 50.90323 | 4.46266 | 141 ft | 10 kts | 247° |
| 2026-04-15 15:21 | 50.90318 | 4.46226 | 141 ft | 3 kts | 278° |
| 2026-04-15 15:21 | 50.90345 | 4.46182 | 142 ft | 6 kts | 327° |
| 2026-04-15 15:21 | 50.90376 | 4.46161 | 142 ft | 4 kts | 336° |
| 2026-04-15 15:21 | 50.90385 | 4.46155 | 142 ft | 0 kts | 336° |